Time,TemperatureF,DewpointF,PressureIn,WindDirection,WindDirectionDegrees,WindSpeedMPH,WindSpeedGustMPH,Humidity,HourlyPrecipIn,Conditions,Clouds,dailyrainin,SolarRadiationWatts/m^2,SoftwareType,DateUTC
2013-03-19 00:00:00,57.7,45.2,30.05,South,173,0.0,5.0,63,0.00,,,0.00,0,Wunderground v.1.15,2013-03-19 07:00:00,
2013-03-19 00:05:00,57.6,45.1,30.05,South,173,0.0,5.0,63,0.00,,,0.00,0,Wunderground v.1.15,2013-03-19 07:05:00,
2013-03-19 00:10:00,57.4,44.9,30.05,South,172,0.0,5.0,63,0.00,,,0.00,0,Wunderground v.1.15,2013-03-19 07:10:00,
2013-03-19 00:15:00,57.2,45.1,30.05,South,172,0.0,5.0,64,0.00,,,0.00,0,Wunderground v.1.15,2013-03-19 07:15:00,
2013-03-19 00:20:00,57.2,45.5,30.05,South,172,0.0,5.0,65,0.00,,,0.00,0,Wunderground v.1.15,2013-03-19 07:20:00,
2013-03-19 00:25:00,57.0,45.3,30.04,South,172,0.0,5.0,65,0.00,,,0.00,0,Wunderground v.1.15,2013-03-19 07:25:00,
2013-03-19 00:30:00,56.5,45.3,30.04,South,171,0.0,5.0,66,0.00,,,0.00,0,Wunderground v.1.15,2013-03-19 07:30:00,
2013-03-19 00:35:00,56.0,45.2,30.04,South,171,0.0,5.0,67,0.00,,,0.00,0,Wunderground v.1.15,2013-03-19 07:35:00,
2013-03-19 00:40:00,56.0,45.2,30.04,South,171,0.0,5.0,67,0.00,,,0.00,0,Wunderground v.1.15,2013-03-19 07:40:00,
2013-03-19 00:45:00,55.9,45.1,30.04,ESE,112,0.0,5.0,67,0.00,,,0.00,0,Wunderground v.1.15,2013-03-19 07:45:00,
2013-03-19 00:50:00,55.6,44.8,30.04,ESE,112,1.0,5.0,67,0.00,,,0.00,0,Wunderground v.1.15,2013-03-19 07:50:00,
2013-03-19 00:55:00,55.4,45.0,30.04,ESE,113,0.0,5.0,68,0.00,,,0.00,0,Wunderground v.1.15,2013-03-19 07:55:00,
2013-03-19 01:00:00,55.1,44.7,30.04,ESE,115,1.0,1.0,68,0.00,,,0.00,0,Wunderground v.1.15,2013-03-19 08:00:00,
2013-03-19 01:05:00,54.9,44.9,30.04,ESE,115,1.0,5.0,69,0.00,,,0.00,0,Wunderground v.1.15,2013-03-19 08:05:00,
2013-03-19 01:10:00,54.6,44.6,30.05,ESE,115,1.0,1.0,69,0.00,,,0.00,0,Wunderground v.1.15,2013-03-19 08:10:00,
2013-03-19 01:15:00,54.6,45.0,30.05,ESE,115,0.0,5.0,70,0.00,,,0.00,0,Wunderground v.1.15,2013-03-19 08:15:00,
2013-03-19 01:20:00,54.5,44.9,30.05,ESE,115,0.0,5.0,70,0.00,,,0.00,0,Wunderground v.1.15,2013-03-19 08:20:00,
2013-03-19 01:25:00,54.6,45.0,30.05,ESE,115,0.0,5.0,70,0.00,,,0.00,0,Wunderground v.1.15,2013-03-19 08:25:00,
2013-03-19 01:30:00,54.6,45.0,30.05,ESE,115,0.0,5.0,70,0.00,,,0.00,0,Wunderground v.1.15,2013-03-19 08:30:00,
2013-03-19 01:35:00,54.6,45.0,30.05,ESE,115,0.0,5.0,70,0.00,,,0.00,0,Wunderground v.1.15,2013-03-19 08:35:00,
2013-03-19 01:40:00,54.5,44.9,30.05,ESE,115,0.0,5.0,70,0.00,,,0.00,0,Wunderground v.1.15,2013-03-19 08:40:00,
2013-03-19 01:45:00,54.6,45.0,30.05,ESE,115,0.0,5.0,70,0.00,,,0.00,0,Wunderground v.1.15,2013-03-19 08:45:00,
2013-03-19 01:50:00,54.5,45.3,30.05,ESE,115,0.0,5.0,71,0.00,,,0.00,0,Wunderground v.1.15,2013-03-19 08:50:00,
2013-03-19 01:55:00,54.4,45.2,30.05,ESE,115,0.0,5.0,71,0.00,,,0.00,0,Wunderground v.1.15,2013-03-19 08:55:00,
2013-03-19 02:00:00,54.5,44.9,30.04,ESE,115,0.0,5.0,70,0.00,,,0.00,0,Wunderground v.1.15,2013-03-19 09:00:00,
2013-03-19 02:05:00,54.7,45.1,30.04,ESE,115,0.0,5.0,70,0.00,,,0.00,0,Wunderground v.1.15,2013-03-19 09:05:00,
2013-03-19 02:10:00,54.9,45.3,30.04,ESE,115,0.0,5.0,70,0.00,,,0.00,0,Wunderground v.1.15,2013-03-19 09:10:00,
2013-03-19 02:15:00,54.9,44.9,30.04,ESE,115,0.0,5.0,69,0.00,,,0.00,0,Wunderground v.1.15,2013-03-19 09:15:00,
2013-03-19 02:20:00,54.9,44.9,30.04,ESE,115,0.0,5.0,69,0.00,,,0.00,0,Wunderground v.1.15,2013-03-19 09:20:00,
2013-03-19 02:25:00,54.9,44.9,30.04,ESE,115,0.0,5.0,69,0.00,,,0.00,0,Wunderground v.1.15,2013-03-19 09:25:00,
2013-03-19 02:30:00,54.9,44.9,30.04,ESE,115,0.0,5.0,69,0.00,,,0.00,0,Wunderground v.1.15,2013-03-19 09:30:00,
2013-03-19 02:40:00,54.6,44.6,30.04,ESE,115,0.0,5.0,69,0.00,,,0.00,0,Wunderground v.1.15,2013-03-19 09:40:00,
2013-03-19 02:45:00,54.4,44.4,30.04,ESE,115,0.0,5.0,69,0.00,,,0.00,0,Wunderground v.1.15,2013-03-19 09:45:00,
2013-03-19 02:50:00,54.4,44.4,30.04,ESE,115,0.0,5.0,69,0.00,,,0.00,0,Wunderground v.1.15,2013-03-19 09:50:00,
2013-03-19 02:52:00,54.8,44.8,30.04,ESE,115,0.0,5.0,69,0.00,,,0.00,0,Wunderground v.1.15,2013-03-19 09:52:00,
2013-03-19 02:55:00,54.4,44.4,30.04,ESE,115,0.0,5.0,69,0.00,,,0.00,0,Wunderground v.1.15,2013-03-19 09:55:00,
2013-03-19 03:05:00,54.5,44.2,30.03,ESE,115,0.0,5.0,68,0.00,,,0.00,0,Wunderground v.1.15,2013-03-19 10:05:00,
2013-03-19 03:17:00,54.5,44.5,30.04,ESE,115,0.0,5.0,69,0.00,,,0.00,0,Wunderground v.1.15,2013-03-19 10:17:00,
2013-03-19 03:27:00,54.5,44.2,30.03,ESE,115,0.0,5.0,68,0.00,,,0.00,0,Wunderground v.1.15,2013-03-19 10:27:00,
2013-03-19 03:32:00,54.4,44.1,30.03,ESE,115,0.0,5.0,68,0.00,,,0.00,0,Wunderground v.1.15,2013-03-19 10:32:00,
2013-03-19 03:35:00,53.2,43.7,30.03,SSW,199,0.0,5.0,70,0.00,,,0.00,0,Wunderground v.1.15,2013-03-19 10:35:00,
2013-03-19 03:38:00,54.4,44.1,30.03,ESE,115,0.0,5.0,68,0.00,,,0.00,0,Wunderground v.1.15,2013-03-19 10:38:00,
2013-03-19 03:40:00,53.1,43.9,30.03,SSW,199,0.0,5.0,71,0.00,,,0.00,0,Wunderground v.1.15,2013-03-19 10:40:00,
2013-03-19 03:47:00,53.6,44.0,30.03,SSW,199,0.0,5.0,70,0.00,,,0.00,0,Wunderground v.1.15,2013-03-19 10:47:00,
2013-03-19 03:50:00,53.0,43.8,30.03,SSW,199,0.0,5.0,71,0.00,,,0.00,0,Wunderground v.1.15,2013-03-19 10:50:00,
2013-03-19 04:03:00,53.0,43.8,30.03,SSW,199,0.0,5.0,71,0.00,,,0.00,0,Wunderground v.1.15,2013-03-19 11:03:00,
2013-03-19 04:12:00,52.8,43.7,30.03,SSW,199,0.0,5.0,71,0.00,,,0.00,0,Wunderground v.1.15,2013-03-19 11:12:00,
2013-03-19 04:17:00,53.1,43.9,30.02,SSW,199,0.0,5.0,71,0.00,,,0.00,0,Wunderground v.1.15,2013-03-19 11:17:00,
2013-03-19 04:22:00,53.3,43.8,30.02,SSW,199,0.0,5.0,70,0.00,,,0.00,0,Wunderground v.1.15,2013-03-19 11:22:00,
2013-03-19 04:27:00,53.2,43.7,30.02,SSW,199,0.0,5.0,70,0.00,,,0.00,0,Wunderground v.1.15,2013-03-19 11:27:00,
2013-03-19 04:33:00,53.3,43.8,30.02,SSW,199,0.0,5.0,70,0.00,,,0.00,0,Wunderground v.1.15,2013-03-19 11:33:00,
2013-03-19 04:38:00,53.3,43.8,30.02,SSW,199,0.0,5.0,70,0.00,,,0.00,0,Wunderground v.1.15,2013-03-19 11:38:00,
2013-03-19 04:43:00,53.2,43.7,30.03,SSW,199,0.0,5.0,70,0.00,,,0.00,0,Wunderground v.1.15,2013-03-19 11:43:00,
2013-03-19 04:52:00,52.6,43.5,30.03,SSW,199,0.0,5.0,71,0.00,,,0.00,0,Wunderground v.1.15,2013-03-19 11:52:00,
2013-03-19 04:57:00,52.5,43.4,30.02,SSW,199,0.0,5.0,71,0.00,,,0.00,0,Wunderground v.1.15,2013-03-19 11:57:00,
2013-03-19 05:07:00,51.5,43.1,30.03,SSW,199,0.0,5.0,73,0.00,,,0.00,0,Wunderground v.1.15,2013-03-19 12:07:00,
2013-03-19 05:12:00,51.4,43.4,30.03,SSW,199,0.0,5.0,74,0.00,,,0.00,0,Wunderground v.1.15,2013-03-19 12:12:00,
2013-03-19 05:17:00,51.4,43.4,30.03,SSW,199,0.0,5.0,74,0.00,,,0.00,0,Wunderground v.1.15,2013-03-19 12:17:00,
2013-03-19 05:23:00,51.0,43.0,30.03,SSW,198,0.0,5.0,74,0.00,,,0.00,0,Wunderground v.1.15,2013-03-19 12:23:00,
2013-03-19 05:28:00,50.8,43.2,30.02,SSW,198,0.0,5.0,75,0.00,,,0.00,0,Wunderground v.1.15,2013-03-19 12:28:00,
2013-03-19 05:33:00,50.8,43.2,30.02,ESE,109,0.0,5.0,75,0.00,,,0.00,0,Wunderground v.1.15,2013-03-19 12:33:00,
2013-03-19 05:37:00,51.2,43.5,30.02,East,88,1.0,5.0,75,0.00,,,0.00,0,Wunderground v.1.15,2013-03-19 12:37:00,
2013-03-19 05:47:00,50.6,43.3,30.02,East,88,0.0,5.0,76,0.00,,,0.00,0,Wunderground v.1.15,2013-03-19 12:47:00,
2013-03-19 05:52:00,50.3,43.0,30.02,East,92,0.0,5.0,76,0.00,,,0.00,0,Wunderground v.1.15,2013-03-19 12:52:00,
2013-03-19 05:57:00,50.0,43.1,30.02,East,92,0.0,5.0,77,0.00,,,0.00,0,Wunderground v.1.15,2013-03-19 12:57:00,
2013-03-19 06:00:00,49.0,42.8,30.04,WSW,253,1.0,1.0,79,0.00,,,0.00,0,Wunderground v.1.15,2013-03-19 13:00:00,
2013-03-19 06:02:00,50.0,43.1,30.02,East,92,0.0,5.0,77,0.00,,,0.00,0,Wunderground v.1.15,2013-03-19 13:02:00,
2013-03-19 06:08:00,50.1,43.2,30.03,East,95,0.0,5.0,77,0.00,,,0.00,0,Wunderground v.1.15,2013-03-19 13:08:00,
2013-03-19 06:10:00,48.7,42.8,30.05,WSW,252,0.0,5.0,80,0.00,,,0.00,0,Wunderground v.1.15,2013-03-19 13:10:00,
2013-03-19 06:13:00,49.6,42.7,30.04,WSW,253,1.0,5.0,77,0.00,,,0.00,0,Wunderground v.1.15,2013-03-19 13:13:00,
2013-03-19 06:15:00,48.8,42.9,30.05,WSW,252,0.0,5.0,80,0.00,,,0.00,0,Wunderground v.1.15,2013-03-19 13:15:00,
2013-03-19 06:22:00,48.8,42.9,30.04,WSW,253,0.0,5.0,80,0.00,,,0.00,0,Wunderground v.1.15,2013-03-19 13:22:00,
2013-03-19 06:30:00,49.0,43.1,30.05,WSW,252,0.0,5.0,80,0.00,,,0.00,0,Wunderground v.1.15,2013-03-19 13:30:00,
2013-03-19 06:37:00,49.1,43.2,30.05,WSW,252,0.0,5.0,80,0.00,,,0.00,0,Wunderground v.1.15,2013-03-19 13:37:00,
2013-03-19 06:40:00,49.2,43.0,30.05,WSW,252,0.0,5.0,79,0.00,,,0.00,0,Wunderground v.1.15,2013-03-19 13:40:00,
2013-03-19 06:42:00,48.9,43.0,30.05,WSW,252,0.0,5.0,80,0.00,,,0.00,0,Wunderground v.1.15,2013-03-19 13:42:00,
2013-03-19 06:52:00,49.1,42.9,30.05,WSW,252,0.0,5.0,79,0.00,,,0.00,0,Wunderground v.1.15,2013-03-19 13:52:00,
2013-03-19 07:02:00,49.1,42.9,30.05,WSW,248,0.0,5.0,79,0.00,,,0.00,0,Wunderground v.1.15,2013-03-19 14:02:00,
2013-03-19 07:07:00,49.0,42.8,30.05,WSW,248,0.0,5.0,79,0.00,,,0.00,7,Wunderground v.1.15,2013-03-19 14:07:00,
2013-03-19 07:12:00,48.7,42.8,30.05,WSW,248,0.0,5.0,80,0.00,,,0.00,9,Wunderground v.1.15,2013-03-19 14:12:00,
2013-03-19 07:17:00,48.6,42.7,30.05,WSW,248,0.0,5.0,80,0.00,,,0.00,14,Wunderground v.1.15,2013-03-19 14:17:00,
2013-03-19 07:22:00,48.6,42.7,30.05,WSW,248,0.0,5.0,80,0.00,,,0.00,19,Wunderground v.1.15,2013-03-19 14:22:00,
2013-03-19 07:28:00,48.6,43.0,30.06,WSW,248,0.0,5.0,81,0.00,,,0.00,26,Wunderground v.1.15,2013-03-19 14:28:00,
2013-03-19 07:30:00,49.2,43.3,30.06,WSW,247,0.0,5.0,80,0.00,,,0.00,62,Wunderground v.1.15,2013-03-19 14:30:00,
2013-03-19 07:32:00,48.8,43.2,30.06,WSW,247,0.0,5.0,81,0.00,,,0.00,33,Wunderground v.1.15,2013-03-19 14:32:00,
2013-03-19 07:37:00,48.8,42.9,30.06,WSW,247,0.0,5.0,80,0.00,,,0.00,39,Wunderground v.1.15,2013-03-19 14:37:00,
2013-03-19 07:40:00,49.9,43.6,30.07,WSW,247,0.0,5.0,79,0.00,,,0.00,90,Wunderground v.1.15,2013-03-19 14:40:00,
2013-03-19 07:42:00,48.9,43.0,30.06,WSW,247,0.0,5.0,80,0.00,,,0.00,51,Wunderground v.1.15,2013-03-19 14:42:00,
2013-03-19 07:52:00,49.5,43.6,30.07,WSW,247,0.0,5.0,80,0.00,,,0.00,74,Wunderground v.1.15,2013-03-19 14:52:00,
2013-03-19 08:03:00,50.4,43.8,30.07,WSW,247,0.0,5.0,78,0.00,,,0.00,98,Wunderground v.1.15,2013-03-19 15:03:00,
2013-03-19 08:08:00,51.1,43.8,30.07,WSW,247,0.0,5.0,76,0.00,,,0.00,114,Wunderground v.1.15,2013-03-19 15:08:00,
2013-03-19 08:18:00,52.4,44.7,30.07,WSW,247,0.0,5.0,75,0.00,,,0.00,141,Wunderground v.1.15,2013-03-19 15:18:00,
2013-03-19 08:22:00,52.6,44.5,30.07,WSW,244,0.0,5.0,74,0.00,,,0.00,155,Wunderground v.1.15,2013-03-19 15:22:00,
2013-03-19 08:32:00,53.0,44.6,30.07,SW,227,1.0,2.0,73,0.00,,,0.00,185,Wunderground v.1.15,2013-03-19 15:32:00,
2013-03-19 08:37:00,53.4,45.0,30.08,SE,126,1.0,1.0,73,0.00,,,0.00,197,Wunderground v.1.15,2013-03-19 15:37:00,
2013-03-19 08:42:00,53.6,44.8,30.08,SE,125,1.0,5.0,72,0.00,,,0.00,221,Wunderground v.1.15,2013-03-19 15:42:00,
2013-03-19 08:47:00,54.2,45.4,30.08,SE,125,1.0,1.0,72,0.00,,,0.00,234,Wunderground v.1.15,2013-03-19 15:47:00,
2013-03-19 08:52:00,54.3,45.5,30.08,ESE,117,1.0,5.0,72,0.00,,,0.00,243,Wunderground v.1.15,2013-03-19 15:52:00,
2013-03-19 08:57:00,55.2,46.0,30.08,ESE,117,0.0,5.0,71,0.00,,,0.00,269,Wunderground v.1.15,2013-03-19 15:57:00,
2013-03-19 09:02:00,55.4,45.8,30.08,ESE,121,0.0,5.0,70,0.00,,,0.00,269,Wunderground v.1.15,2013-03-19 16:02:00,
2013-03-19 09:08:00,55.6,46.3,30.08,ESE,121,1.0,5.0,71,0.00,,,0.00,297,Wunderground v.1.15,2013-03-19 16:08:00,
2013-03-19 09:13:00,55.6,46.0,30.08,ENE,77,1.0,5.0,70,0.00,,,0.00,297,Wunderground v.1.15,2013-03-19 16:13:00,
2013-03-19 09:18:00,56.2,46.2,30.08,East,89,2.0,5.0,69,0.00,,,0.00,332,Wunderground v.1.15,2013-03-19 16:18:00,
2013-03-19 09:22:00,56.6,45.8,30.08,East,98,2.0,5.0,67,0.00,,,0.00,346,Wunderground v.1.15,2013-03-19 16:22:00,